createdAt,value
2018-01-02T01:38:31.062Z,72.08
2018-01-02T01:38:31.625Z,72.36
2018-01-02T01:38:32.224Z,72.36
2018-01-02T01:38:32.822Z,72.17
2018-01-02T01:38:33.422Z,72.36
2018-01-02T01:38:34.025Z,72.17
2018-01-02T01:38:34.623Z,72.45
2018-01-02T01:38:35.226Z,72.55
2018-01-02T01:39:28.683Z,72.36
2018-01-02T01:39:29.277Z,72.45
2018-01-02T01:39:29.878Z,72.55
2018-01-02T01:39:30.477Z,72.08
2018-01-02T01:39:31.084Z,72.36
2018-01-02T01:39:31.676Z,72.36
2018-01-02T01:39:32.279Z,72.08
2018-01-02T01:39:32.873Z,72.17
2018-01-02T01:40:27.358Z,72.55
2018-01-02T01:40:27.952Z,72.55
2018-01-02T01:40:28.552Z,72.55
2018-01-02T01:40:29.152Z,72.55
2018-01-02T01:40:29.751Z,72.55
2018-01-02T01:40:30.353Z,72.36
2018-01-02T01:40:30.950Z,72.55
2018-01-02T01:40:31.552Z,72.36
2018-01-02T01:41:26.034Z,72.36
2018-01-02T01:41:26.630Z,72.55
2018-01-02T01:41:27.230Z,72.36
2018-01-02T01:41:27.827Z,72.36
2018-01-02T01:41:28.427Z,72.36
2018-01-02T01:41:29.030Z,72.64
2018-01-02T01:41:29.627Z,72.55
2018-01-02T01:41:30.228Z,72.55
2018-01-02T01:42:23.686Z,72.64
2018-01-02T01:42:24.283Z,72.55
2018-01-02T01:42:24.882Z,72.64
2018-01-02T01:42:25.482Z,72.64
2018-01-02T01:42:26.084Z,72.64
2018-01-02T01:42:26.692Z,72.55
2018-01-02T01:42:27.284Z,72.33
2018-01-02T01:42:27.882Z,72.17
2018-01-02T01:43:22.363Z,72.45
2018-01-02T01:43:22.958Z,72.64
2018-01-02T01:43:23.557Z,72.64
2018-01-02T01:43:24.157Z,72.17
2018-01-02T01:43:24.756Z,72.55
2018-01-02T01:43:25.357Z,72.64
2018-01-02T01:43:25.956Z,72.17
2018-01-02T01:43:26.556Z,72.08
2018-01-02T01:44:21.071Z,72.36
2018-01-02T01:44:21.633Z,72.45
2018-01-02T01:44:22.233Z,72.93
2018-01-02T01:44:22.839Z,72.45
2018-01-02T01:44:23.434Z,72.84
2018-01-02T01:44:24.033Z,72.52
2018-01-02T01:44:24.632Z,72.45
2018-01-02T01:44:25.233Z,72.27
2018-01-02T01:45:19.714Z,72.33
2018-01-02T01:45:20.310Z,72.93
2018-01-02T01:45:20.909Z,72.93
2018-01-02T01:45:21.508Z,72.36
2018-01-02T01:45:22.108Z,72.80
2018-01-02T01:45:22.709Z,72.36
2018-01-02T01:45:23.308Z,72.55
2018-01-02T01:45:23.907Z,72.84
2018-01-02T01:46:17.366Z,72.17
2018-01-02T01:46:17.962Z,71.98
2018-01-02T01:46:18.561Z,72.17
2018-01-02T01:46:19.161Z,71.95
2018-01-02T01:46:19.764Z,72.08
2018-01-02T01:46:20.366Z,72.36
2018-01-02T01:46:20.961Z,72.23
2018-01-02T01:46:21.561Z,72.27
2018-01-02T01:47:16.039Z,71.70
2018-01-02T01:47:16.636Z,71.70
2018-01-02T01:47:17.237Z,71.51
2018-01-02T01:47:17.836Z,71.89
2018-01-02T01:47:18.436Z,71.89
2018-01-02T01:47:19.036Z,71.89
2018-01-02T01:47:19.637Z,71.89
2018-01-02T01:47:20.236Z,71.80
2018-01-02T01:48:14.718Z,71.70
2018-01-02T01:48:15.317Z,71.60
2018-01-02T01:48:15.913Z,71.89
2018-01-02T01:48:16.512Z,71.70
2018-01-02T01:48:17.113Z,71.60
2018-01-02T01:48:17.711Z,71.60
2018-01-02T01:48:18.312Z,71.70
2018-01-02T01:48:18.911Z,71.51
2018-01-02T01:49:13.392Z,71.32
2018-01-02T01:49:13.988Z,70.94
2018-01-02T01:49:14.588Z,71.22
2018-01-02T01:49:15.189Z,71.41
2018-01-02T01:49:15.788Z,71.32
2018-01-02T01:49:16.391Z,71.32
2018-01-02T01:49:16.987Z,71.32
2018-01-02T01:49:17.588Z,71.32
2018-01-02T01:50:12.093Z,71.22
2018-01-02T01:50:12.666Z,71.32
2018-01-02T01:50:13.264Z,71.22
2018-01-02T01:50:13.905Z,71.32
2018-01-02T01:50:14.466Z,71.32
2018-01-02T01:50:15.064Z,70.84
2018-01-02T01:50:15.664Z,71.41
2018-01-02T01:50:16.265Z,70.84
2018-01-02T01:51:09.724Z,70.65
2018-01-02T01:51:10.319Z,71.51
2018-01-02T01:51:10.917Z,71.32
2018-01-02T01:51:11.516Z,71.41
2018-01-02T01:51:12.118Z,70.75
2018-01-02T01:51:12.724Z,70.84
2018-01-02T01:51:13.316Z,71.22
2018-01-02T01:51:13.917Z,71.22
2018-01-02T01:52:08.397Z,71.22
2018-01-02T01:52:08.992Z,71.32
2018-01-02T01:52:09.592Z,71.22
2018-01-02T01:52:10.190Z,71.41
2018-01-02T01:52:10.793Z,71.22
2018-01-02T01:52:11.391Z,71.22
2018-01-02T01:52:11.991Z,71.22
2018-01-02T01:52:12.591Z,71.13
2018-01-02T01:53:06.051Z,71.60
2018-01-02T01:53:06.645Z,71.60
2018-01-02T01:53:07.244Z,71.60
2018-01-02T01:53:07.845Z,71.13
2018-01-02T01:53:08.444Z,71.60
2018-01-02T01:53:09.044Z,71.22
2018-01-02T01:53:09.644Z,71.22
2018-01-02T01:53:10.242Z,71.13
2018-01-02T01:54:04.723Z,71.51
2018-01-02T01:54:05.320Z,71.03
2018-01-02T01:54:05.924Z,71.51
2018-01-02T01:54:06.520Z,71.60
2018-01-02T01:54:07.119Z,71.22
2018-01-02T01:54:07.718Z,71.60
2018-01-02T01:54:08.318Z,71.03
2018-01-02T01:54:08.919Z,71.60
2018-01-02T01:55:02.407Z,71.41
2018-01-02T01:55:02.974Z,71.13
2018-01-02T01:55:03.573Z,71.13
2018-01-02T01:55:04.172Z,70.94
2018-01-02T01:55:04.771Z,71.41
2018-01-02T01:55:05.373Z,71.13
2018-01-02T01:55:05.973Z,71.41
2018-01-02T01:55:06.571Z,71.41
2018-01-02T01:56:00.029Z,71.13
2018-01-02T01:56:00.624Z,71.03
2018-01-02T01:56:01.224Z,71.22
2018-01-02T01:56:01.823Z,70.94
2018-01-02T01:56:02.423Z,71.22
2018-01-02T01:56:03.024Z,70.75
2018-01-02T01:56:03.622Z,70.75
2018-01-02T01:56:04.223Z,71.22
2018-01-02T01:56:58.706Z,71.32
2018-01-02T01:56:59.300Z,71.41
2018-01-02T01:56:59.899Z,71.32
2018-01-02T01:57:00.499Z,71.13
2018-01-02T01:57:01.099Z,71.32
2018-01-02T01:57:01.700Z,71.32
2018-01-02T01:57:02.298Z,71.32
2018-01-02T01:57:02.898Z,71.32
2018-01-02T01:57:57.384Z,71.32
2018-01-02T01:57:57.975Z,71.32
2018-01-02T01:57:58.575Z,71.80
2018-01-02T01:57:59.174Z,71.32
2018-01-02T01:57:59.776Z,71.32
2018-01-02T01:58:00.375Z,71.32
2018-01-02T01:58:00.975Z,71.89
2018-01-02T01:58:01.573Z,71.32
2018-01-02T01:59:07.729Z,71.70
2018-01-02T01:59:08.323Z,71.80
2018-01-02T01:59:08.923Z,71.80
2018-01-02T01:59:09.522Z,71.89
2018-01-02T01:59:10.124Z,71.80
2018-01-02T01:59:10.724Z,71.80
2018-01-02T01:59:11.323Z,71.89
2018-01-02T01:59:11.922Z,71.80
2018-01-02T02:00:05.414Z,71.70
2018-01-02T02:00:05.977Z,71.60
2018-01-02T02:00:06.577Z,71.80
2018-01-02T02:00:07.175Z,71.70
2018-01-02T02:00:07.775Z,71.51
2018-01-02T02:00:08.378Z,71.70
2018-01-02T02:00:08.974Z,71.51
2018-01-02T02:00:09.576Z,71.80
2018-01-02T02:01:03.032Z,71.89
2018-01-02T02:01:03.628Z,71.89
2018-01-02T02:01:04.229Z,71.70
2018-01-02T02:01:04.831Z,71.70
2018-01-02T02:01:05.427Z,71.89
2018-01-02T02:01:06.028Z,71.70
2018-01-02T02:01:06.627Z,71.70
2018-01-02T02:01:07.227Z,71.70
2018-01-02T02:02:01.710Z,71.98
2018-01-02T02:02:02.306Z,71.80
2018-01-02T02:02:02.902Z,71.89
2018-01-02T02:02:03.503Z,71.98
2018-01-02T02:02:04.103Z,71.80
2018-01-02T02:02:04.704Z,71.70
2018-01-02T02:02:05.302Z,71.80
2018-01-02T02:02:05.904Z,71.89
2018-01-02T02:03:00.381Z,72.36
2018-01-02T02:03:00.990Z,72.27
2018-01-02T02:03:01.580Z,72.27
2018-01-02T02:03:02.180Z,71.80
2018-01-02T02:03:02.778Z,71.89
2018-01-02T02:03:03.378Z,72.27
2018-01-02T02:03:03.976Z,71.98
2018-01-02T02:03:04.578Z,72.08
2018-01-02T02:03:59.060Z,72.45
2018-01-02T02:03:59.655Z,72.45
2018-01-02T02:04:00.255Z,72.45
2018-01-02T02:04:00.854Z,72.45
2018-01-02T02:04:01.457Z,72.45
2018-01-02T02:04:02.055Z,72.17
2018-01-02T02:04:02.653Z,73.03
2018-01-02T02:04:03.253Z,72.36
2018-01-02T02:04:56.731Z,72.45
2018-01-02T02:04:57.308Z,72.55
2018-01-02T02:04:57.909Z,72.55
2018-01-02T02:04:58.510Z,72.55
2018-01-02T02:04:59.105Z,72.45
2018-01-02T02:04:59.706Z,72.55
2018-01-02T02:05:00.306Z,72.27
2018-01-02T02:05:00.905Z,72.55
2018-01-02T02:05:55.411Z,73.31
2018-01-02T02:05:55.982Z,73.41
2018-01-02T02:05:56.582Z,73.50
2018-01-02T02:05:57.187Z,73.22
2018-01-02T02:05:57.796Z,73.50
2018-01-02T02:05:58.382Z,73.41
2018-01-02T02:05:58.981Z,73.31
2018-01-02T02:05:59.581Z,73.50
2018-01-02T02:06:53.038Z,73.41
2018-01-02T02:06:53.636Z,73.60
2018-01-02T02:06:54.232Z,73.60
2018-01-02T02:06:54.833Z,73.60
2018-01-02T02:06:55.435Z,73.22
2018-01-02T02:06:56.033Z,73.31
2018-01-02T02:06:56.635Z,73.60
2018-01-02T02:06:57.232Z,73.50
2018-01-02T02:07:51.712Z,73.79
2018-01-02T02:07:52.310Z,74.07
2018-01-02T02:07:52.909Z,73.79
2018-01-02T02:07:53.508Z,74.07
2018-01-02T02:07:54.111Z,74.07
2018-01-02T02:07:54.709Z,74.07
2018-01-02T02:07:55.309Z,74.07
2018-01-02T02:07:55.907Z,74.07
2018-01-02T02:08:49.364Z,73.79
2018-01-02T02:08:49.962Z,74.07
2018-01-02T02:08:50.566Z,74.16
2018-01-02T02:08:51.170Z,73.79
2018-01-02T02:08:51.761Z,74.07
2018-01-02T02:08:52.361Z,74.07
2018-01-02T02:08:52.975Z,74.07
2018-01-02T02:08:53.561Z,74.07
2018-01-02T02:09:48.040Z,74.16
2018-01-02T02:09:48.637Z,73.97
2018-01-02T02:09:49.236Z,74.07
2018-01-02T02:09:49.837Z,74.16
2018-01-02T02:09:50.435Z,74.16
2018-01-02T02:09:51.037Z,73.97
2018-01-02T02:09:51.636Z,73.97
2018-01-02T02:09:52.236Z,74.26
2018-01-02T02:10:46.741Z,75.11
2018-01-02T02:10:47.315Z,75.02
2018-01-02T02:10:47.912Z,75.02
2018-01-02T02:10:48.512Z,75.02
2018-01-02T02:10:49.112Z,75.02
2018-01-02T02:10:49.714Z,75.11
2018-01-02T02:10:50.310Z,75.02
2018-01-02T02:10:50.910Z,75.02
2018-01-02T02:11:44.367Z,74.73
2018-01-02T02:11:44.965Z,75.02
2018-01-02T02:11:45.576Z,75.02
2018-01-02T02:11:46.168Z,74.83
2018-01-02T02:11:46.764Z,75.02
2018-01-02T02:11:47.366Z,75.02
2018-01-02T02:11:47.965Z,74.92
2018-01-02T02:11:48.563Z,75.02
2018-01-02T02:12:43.042Z,74.73
2018-01-02T02:12:43.638Z,74.73
2018-01-02T02:12:44.239Z,74.73
2018-01-02T02:12:44.839Z,74.73
2018-01-02T02:12:45.439Z,75.59
2018-01-02T02:12:46.038Z,74.92
2018-01-02T02:12:46.641Z,75.21
2018-01-02T02:12:47.239Z,74.83
2018-01-02T02:13:41.719Z,75.40
2018-01-02T02:13:42.315Z,75.11
2018-01-02T02:13:42.915Z,75.21
2018-01-02T02:13:43.514Z,75.15
2018-01-02T02:13:44.115Z,75.40
2018-01-02T02:13:44.716Z,75.62
2018-01-02T02:13:45.369Z,75.21
2018-01-02T02:13:45.915Z,75.49
2018-01-02T02:14:40.395Z,75.53
2018-01-02T02:14:40.992Z,75.05
2018-01-02T02:14:41.591Z,75.24
2018-01-02T02:14:42.190Z,75.02
2018-01-02T02:14:42.789Z,75.62
2018-01-02T02:14:43.394Z,75.11
2018-01-02T02:14:43.990Z,75.02
2018-01-02T02:14:44.590Z,75.34
2018-01-02T02:15:39.102Z,75.72
2018-01-02T02:15:39.667Z,75.62
2018-01-02T02:15:40.271Z,75.81
2018-01-02T02:15:40.867Z,75.72
2018-01-02T02:15:41.469Z,75.72
2018-01-02T02:15:42.068Z,75.72
2018-01-02T02:15:42.664Z,75.62
2018-01-02T02:15:43.266Z,75.72
2018-01-02T02:16:38.256Z,75.62
2018-01-02T02:16:38.854Z,75.62
2018-01-02T02:16:39.454Z,75.91
2018-01-02T02:16:40.058Z,75.43
2018-01-02T02:16:40.654Z,75.43
2018-01-02T02:16:41.254Z,75.43
2018-01-02T02:16:41.854Z,75.53
2018-01-02T02:17:36.318Z,75.62
2018-01-02T02:17:36.916Z,75.72
2018-01-02T02:17:37.514Z,75.72
2018-01-02T02:17:38.114Z,76.29
2018-01-02T02:17:38.719Z,76.48
2018-01-02T02:17:39.316Z,76.67
2018-01-02T02:17:39.914Z,76.57
2018-01-02T02:17:40.513Z,76.10
2018-01-02T02:18:33.971Z,76.57
2018-01-02T02:18:34.568Z,76.01
2018-01-02T02:18:35.168Z,76.57
2018-01-02T02:18:35.772Z,76.10
2018-01-02T02:18:36.367Z,76.57
2018-01-02T02:18:36.966Z,76.67
2018-01-02T02:18:37.568Z,76.67
2018-01-02T02:18:38.167Z,76.10
2018-01-02T02:19:31.623Z,76.57
2018-01-02T02:19:32.220Z,76.57
2018-01-02T02:19:32.820Z,76.57
2018-01-02T02:19:33.421Z,76.57
2018-01-02T02:19:34.019Z,76.57
2018-01-02T02:19:34.620Z,76.29
2018-01-02T02:19:35.219Z,76.20
2018-01-02T02:19:35.818Z,76.29
2018-01-02T02:20:30.298Z,76.76
2018-01-02T02:20:30.895Z,77.33
2018-01-02T02:20:31.494Z,77.43
2018-01-02T02:20:32.129Z,77.43
2018-01-02T02:20:32.692Z,77.71
2018-01-02T02:20:33.294Z,77.33
2018-01-02T02:20:33.893Z,77.62
2018-01-02T02:20:34.492Z,77.90
2018-01-02T02:21:29.007Z,78.28
2018-01-02T02:21:29.569Z,78.66
2018-01-02T02:21:30.169Z,78.19
2018-01-02T02:21:30.771Z,78.56
2018-01-02T02:21:31.369Z,78.66
2018-01-02T02:21:31.970Z,78.56
2018-01-02T02:21:32.569Z,78.66
2018-01-02T02:21:33.173Z,78.75
2018-01-02T02:22:26.626Z,79.42
2018-01-02T02:22:27.221Z,79.33
2018-01-02T02:22:27.822Z,79.14
2018-01-02T02:22:28.425Z,79.04
2018-01-02T02:22:29.022Z,79.52
2018-01-02T02:22:29.622Z,78.95
2018-01-02T02:22:30.229Z,79.04
2018-01-02T02:22:30.825Z,79.04
2018-01-02T02:23:25.300Z,80.08
2018-01-02T02:23:25.900Z,80.18
2018-01-02T02:23:26.497Z,80.18
2018-01-02T02:23:27.101Z,80.18
2018-01-02T02:23:27.697Z,79.90
2018-01-02T02:23:28.297Z,79.80
2018-01-02T02:23:28.896Z,79.99
2018-01-02T02:23:29.496Z,80.27
2018-01-02T02:24:22.953Z,80.65
2018-01-02T02:24:23.552Z,80.46
2018-01-02T02:24:24.150Z,80.75
2018-01-02T02:24:24.752Z,80.75
2018-01-02T02:24:25.352Z,80.56
2018-01-02T02:24:25.948Z,80.75
2018-01-02T02:24:26.548Z,80.75
2018-01-02T02:24:27.147Z,80.75
2018-01-02T02:25:20.610Z,81.32
2018-01-02T02:25:21.202Z,81.32
2018-01-02T02:25:21.812Z,81.13
2018-01-02T02:25:22.407Z,81.23
2018-01-02T02:25:23.001Z,81.60
2018-01-02T02:25:23.601Z,81.70
2018-01-02T02:25:24.201Z,81.70
2018-01-02T02:25:24.808Z,81.60
2018-01-02T02:26:18.254Z,82.08
2018-01-02T02:26:18.853Z,82.08
2018-01-02T02:26:19.456Z,81.88
2018-01-02T02:26:20.055Z,82.08
2018-01-02T02:26:20.652Z,81.98
2018-01-02T02:26:21.259Z,81.98
2018-01-02T02:26:21.853Z,81.98
2018-01-02T02:26:22.450Z,82.36
2018-01-02T02:27:16.965Z,82.65
2018-01-02T02:27:17.528Z,82.84
2018-01-02T02:27:18.127Z,82.27
2018-01-02T02:27:18.730Z,82.65
2018-01-02T02:27:19.331Z,82.65
2018-01-02T02:27:19.929Z,82.65
2018-01-02T02:27:20.528Z,82.84
2018-01-02T02:27:21.127Z,82.65
2018-01-02T02:28:15.609Z,83.88
2018-01-02T02:28:16.205Z,83.78
2018-01-02T02:28:16.812Z,83.50
2018-01-02T02:28:17.410Z,83.59
2018-01-02T02:28:18.003Z,83.88
2018-01-02T02:28:18.604Z,83.69
2018-01-02T02:28:19.203Z,83.69
2018-01-02T02:28:19.803Z,83.78
2018-01-02T02:29:13.261Z,83.97
2018-01-02T02:29:13.856Z,84.26
2018-01-02T02:29:14.455Z,83.97
2018-01-02T02:29:15.060Z,84.26
2018-01-02T02:29:15.656Z,84.07
2018-01-02T02:29:16.255Z,84.26
2018-01-02T02:29:16.856Z,83.78
2018-01-02T02:29:17.455Z,84.07
2018-01-02T02:30:10.912Z,84.36
2018-01-02T02:30:11.508Z,84.45
2018-01-02T02:30:12.108Z,84.36
2018-01-02T02:30:12.709Z,84.45
2018-01-02T02:30:13.325Z,84.55
2018-01-02T02:30:13.908Z,84.45
2018-01-02T02:30:14.508Z,84.55
2018-01-02T02:30:15.106Z,84.45
2018-01-02T02:31:08.563Z,85.49
2018-01-02T02:31:09.162Z,85.59
2018-01-02T02:31:09.761Z,85.78
2018-01-02T02:31:10.360Z,85.59
2018-01-02T02:31:10.959Z,85.59
2018-01-02T02:31:11.560Z,85.59
2018-01-02T02:31:12.159Z,85.21
2018-01-02T02:31:12.758Z,85.59
2018-01-02T02:32:06.216Z,85.59
2018-01-02T02:32:06.812Z,85.87
2018-01-02T02:32:07.411Z,85.68
2018-01-02T02:32:08.021Z,85.78
2018-01-02T02:32:08.611Z,85.78
2018-01-02T02:32:09.214Z,85.97
2018-01-02T02:32:09.808Z,85.59
2018-01-02T02:32:10.409Z,85.68
2018-01-02T02:33:04.928Z,86.44
2018-01-02T02:33:05.485Z,86.35
2018-01-02T02:33:06.084Z,86.35
2018-01-02T02:33:06.689Z,86.44
2018-01-02T02:33:07.285Z,86.63
2018-01-02T02:33:07.884Z,86.63
2018-01-02T02:33:08.484Z,86.44
2018-01-02T02:33:09.085Z,86.35
2018-01-02T02:34:02.542Z,87.11
2018-01-02T02:34:03.140Z,87.01
2018-01-02T02:34:03.739Z,87.20
2018-01-02T02:34:04.340Z,87.11
2018-01-02T02:34:04.937Z,87.01
2018-01-02T02:34:05.537Z,87.01
2018-01-02T02:34:06.136Z,87.01
2018-01-02T02:34:06.738Z,86.91
2018-01-02T02:52:18.873Z,83.55
2018-01-02T02:52:19.436Z,84.12
2018-01-02T02:52:20.037Z,83.78
2018-01-02T02:52:20.637Z,84.17
2018-01-02T02:52:21.236Z,83.59
2018-01-02T02:52:21.836Z,83.55
2018-01-02T02:52:22.435Z,83.59
2018-01-02T02:52:23.038Z,84.12
2018-01-02T02:53:16.597Z,82.98
2018-01-02T02:53:17.192Z,83.12
2018-01-02T02:53:17.801Z,83.03
2018-01-02T02:53:18.389Z,82.84
2018-01-02T02:53:18.988Z,83.08
2018-01-02T02:53:19.590Z,83.12
2018-01-02T02:53:20.190Z,83.08
2018-01-02T02:53:20.790Z,83.12
2018-01-02T02:54:15.273Z,83.36
2018-01-02T02:54:15.867Z,83.27
2018-01-02T02:54:16.465Z,83.17
2018-01-02T02:54:17.065Z,83.50
2018-01-02T02:54:17.669Z,83.08
2018-01-02T02:54:18.265Z,83.36
2018-01-02T02:54:18.869Z,83.36
2018-01-02T02:54:19.467Z,83.36
2018-01-02T02:55:12.924Z,82.89
2018-01-02T02:55:13.520Z,82.60
2018-01-02T02:55:14.119Z,82.23
2018-01-02T02:55:14.720Z,82.79
2018-01-02T02:55:15.330Z,82.84
2018-01-02T02:55:15.917Z,82.42
2018-01-02T02:55:16.516Z,82.79
2018-01-02T02:55:17.119Z,82.79
2018-01-02T02:56:11.086Z,82.23
2018-01-02T02:56:11.687Z,82.70
2018-01-02T02:56:12.282Z,82.42
2018-01-02T02:56:12.882Z,82.42
2018-01-02T02:56:13.482Z,82.42
2018-01-02T02:56:14.083Z,82.42
2018-01-02T02:56:14.681Z,82.42
2018-01-02T02:57:08.125Z,82.13
2018-01-02T02:57:08.722Z,81.66
2018-01-02T02:57:09.322Z,82.04
2018-01-02T02:57:09.925Z,82.04
2018-01-02T02:57:10.522Z,82.04
2018-01-02T02:57:11.121Z,82.32
2018-01-02T02:57:11.719Z,82.04
2018-01-02T02:57:12.320Z,81.56
2018-01-02T02:58:05.811Z,81.47
2018-01-02T02:58:06.372Z,81.47
2018-01-02T02:58:06.972Z,81.47
2018-01-02T02:58:07.572Z,81.75
2018-01-02T02:58:08.172Z,81.47
2018-01-02T02:58:08.771Z,81.66
2018-01-02T02:58:09.375Z,81.47
2018-01-02T02:58:09.972Z,81.56
2018-01-02T02:59:04.450Z,80.71
2018-01-02T02:59:05.048Z,80.80
2018-01-02T02:59:05.648Z,80.80
2018-01-02T02:59:06.247Z,80.80
2018-01-02T02:59:06.849Z,80.80
2018-01-02T02:59:07.448Z,80.71
2018-01-02T02:59:08.048Z,80.71
2018-01-02T02:59:08.647Z,80.71
2018-01-02T03:00:03.127Z,80.52
2018-01-02T03:00:03.725Z,80.71
2018-01-02T03:00:04.354Z,80.33
2018-01-02T03:00:04.924Z,80.62
2018-01-02T03:00:05.524Z,80.62
2018-01-02T03:00:06.125Z,80.62
2018-01-02T03:00:06.722Z,80.52
2018-01-02T03:00:07.323Z,80.52
2018-01-02T03:01:01.803Z,80.33
2018-01-02T03:01:02.400Z,80.33
2018-01-02T03:01:03.001Z,80.33
2018-01-02T03:01:03.608Z,80.43
2018-01-02T03:01:04.199Z,80.14
2018-01-02T03:01:04.799Z,80.24
2018-01-02T03:01:05.399Z,80.43
2018-01-02T03:01:05.999Z,80.24
2018-01-02T03:01:59.457Z,79.57
2018-01-02T03:02:00.053Z,79.57
2018-01-02T03:02:00.653Z,79.76
2018-01-02T03:02:01.259Z,79.57
2018-01-02T03:02:01.852Z,79.57
2018-01-02T03:02:02.451Z,79.57
2018-01-02T03:02:03.051Z,79.57
2018-01-02T03:02:03.651Z,80.14
2018-01-02T03:02:57.105Z,79.10
2018-01-02T03:02:57.706Z,79.47
2018-01-02T03:02:58.303Z,79.38
2018-01-02T03:02:58.915Z,79.47
2018-01-02T03:02:59.504Z,79.76
2018-01-02T03:03:00.105Z,79.38
2018-01-02T03:03:00.702Z,79.85
2018-01-02T03:03:01.303Z,79.76
2018-01-02T03:03:55.074Z,79.19
2018-01-02T03:03:55.579Z,79.10
2018-01-02T03:03:56.178Z,79.47
2018-01-02T03:03:56.778Z,79.10
2018-01-02T03:03:57.379Z,79.66
2018-01-02T03:03:57.979Z,79.47
2018-01-02T03:03:58.578Z,79.38
2018-01-02T03:03:59.179Z,79.76
2018-01-02T03:04:52.720Z,79.10
2018-01-02T03:04:53.336Z,79.10
2018-01-02T03:04:53.916Z,79.00
2018-01-02T03:04:54.516Z,79.10
2018-01-02T03:04:55.115Z,79.10
2018-01-02T03:04:55.716Z,79.10
2018-01-02T03:04:56.314Z,79.19
2018-01-02T03:04:56.916Z,79.00
2018-01-02T03:05:50.461Z,79.47
2018-01-02T03:05:50.968Z,79.47
2018-01-02T03:05:51.566Z,79.85
2018-01-02T03:05:52.171Z,79.38
2018-01-02T03:05:52.766Z,79.47
2018-01-02T03:05:53.367Z,79.85
2018-01-02T03:05:53.965Z,79.85
2018-01-02T03:05:54.565Z,79.47
2018-01-02T03:06:48.022Z,79.28
2018-01-02T03:06:48.619Z,79.38
2018-01-02T03:06:49.218Z,79.28
2018-01-02T03:06:49.821Z,79.57
2018-01-02T03:06:50.418Z,79.57
2018-01-02T03:06:51.018Z,79.57
2018-01-02T03:06:51.617Z,79.57
2018-01-02T03:06:52.219Z,79.57
2018-01-02T03:07:46.695Z,80.14
2018-01-02T03:07:47.294Z,80.14
2018-01-02T03:07:47.894Z,80.14
2018-01-02T03:07:48.496Z,80.04
2018-01-02T03:07:49.097Z,80.14
2018-01-02T03:07:49.694Z,79.95
2018-01-02T03:07:50.293Z,80.14
2018-01-02T03:07:50.892Z,80.04
2018-01-02T03:08:44.350Z,79.57
2018-01-02T03:08:44.947Z,79.57
2018-01-02T03:08:45.545Z,79.76
2018-01-02T03:08:46.148Z,79.57
2018-01-02T03:08:46.746Z,79.76
2018-01-02T03:08:47.345Z,79.57
2018-01-02T03:08:47.944Z,79.57
2018-01-02T03:08:48.544Z,79.57
2018-01-02T03:09:42.289Z,79.47
2018-01-02T03:09:42.795Z,79.47
2018-01-02T03:09:43.392Z,79.38
2018-01-02T03:09:43.990Z,79.38
2018-01-02T03:09:44.591Z,79.76
2018-01-02T03:09:45.191Z,79.47
2018-01-02T03:09:45.790Z,79.38
2018-01-02T03:09:46.393Z,79.47
2018-01-02T03:10:39.857Z,79.76
2018-01-02T03:10:40.454Z,79.85
2018-01-02T03:10:41.054Z,79.85
2018-01-02T03:10:41.661Z,79.66
2018-01-02T03:10:42.251Z,79.66
2018-01-02T03:10:42.851Z,79.76
2018-01-02T03:10:43.452Z,79.95
2018-01-02T03:10:44.052Z,79.95
2018-01-02T03:11:38.533Z,79.47
2018-01-02T03:11:39.129Z,79.47
2018-01-02T03:11:39.727Z,79.38
2018-01-02T03:11:40.333Z,79.38
2018-01-02T03:11:40.928Z,79.47
2018-01-02T03:11:41.529Z,79.47
2018-01-02T03:11:42.128Z,79.47
2018-01-02T03:11:42.727Z,79.47
2018-01-02T03:12:37.208Z,79.76
2018-01-02T03:12:37.810Z,79.95
2018-01-02T03:12:38.406Z,79.66
2018-01-02T03:12:39.006Z,79.76
2018-01-02T03:12:39.604Z,79.95
2018-01-02T03:12:40.204Z,79.76
2018-01-02T03:12:40.804Z,79.76
2018-01-02T03:12:41.404Z,79.76
2018-01-02T03:13:35.884Z,79.95
2018-01-02T03:13:36.481Z,79.76
2018-01-02T03:13:37.081Z,79.76
2018-01-02T03:13:37.683Z,79.66
2018-01-02T03:13:38.280Z,79.66
2018-01-02T03:13:38.880Z,79.57
2018-01-02T03:13:39.479Z,79.76
2018-01-02T03:13:40.079Z,79.66
2018-01-02T03:14:34.558Z,79.38
2018-01-02T03:14:35.158Z,79.38
2018-01-02T03:14:35.755Z,79.47
2018-01-02T03:14:36.357Z,79.47
2018-01-02T03:14:36.956Z,79.85
2018-01-02T03:14:37.557Z,79.47
2018-01-02T03:14:38.157Z,79.47
2018-01-02T03:14:38.756Z,79.38
2018-01-02T03:15:32.246Z,79.57
2018-01-02T03:15:32.809Z,79.57
2018-01-02T03:15:33.409Z,79.28
2018-01-02T03:15:34.008Z,79.66
2018-01-02T03:15:34.608Z,79.47
2018-01-02T03:15:35.212Z,79.57
2018-01-02T03:15:35.808Z,79.57
2018-01-02T03:15:36.407Z,79.57
2018-01-02T03:16:30.889Z,79.66
2018-01-02T03:16:31.483Z,79.57
2018-01-02T03:16:32.083Z,79.61
2018-01-02T03:16:32.685Z,79.47
2018-01-02T03:16:33.284Z,79.95
2018-01-02T03:16:33.883Z,79.95
2018-01-02T03:16:34.482Z,79.52
2018-01-02T03:16:35.083Z,79.71
2018-01-02T03:17:28.538Z,79.85
2018-01-02T03:17:29.136Z,79.90
2018-01-02T03:17:29.736Z,80.24
2018-01-02T03:17:30.338Z,79.90
2018-01-02T03:17:30.936Z,79.99
2018-01-02T03:17:31.535Z,79.95
2018-01-02T03:17:32.136Z,80.04
2018-01-02T03:17:32.739Z,79.99
2018-01-02T03:18:27.215Z,80.24
2018-01-02T03:18:27.811Z,80.43
2018-01-02T03:18:28.411Z,80.37
2018-01-02T03:18:29.011Z,80.24
2018-01-02T03:18:29.610Z,80.46
2018-01-02T03:18:30.209Z,80.18
2018-01-02T03:18:30.809Z,80.27
2018-01-02T03:18:31.410Z,80.27
2018-01-02T03:19:25.889Z,80.46
2018-01-02T03:19:26.487Z,80.46
2018-01-02T03:19:27.086Z,80.08
2018-01-02T03:19:27.688Z,80.18
2018-01-02T03:19:28.286Z,80.18
2018-01-02T03:19:28.884Z,80.18
2018-01-02T03:19:29.490Z,80.27
2018-01-02T03:19:30.086Z,80.14
2018-01-02T03:20:23.542Z,80.75
2018-01-02T03:20:24.139Z,80.56
2018-01-02T03:20:24.738Z,80.37
2018-01-02T03:20:25.341Z,80.56
2018-01-02T03:20:25.938Z,80.46
2018-01-02T03:20:26.542Z,80.56
2018-01-02T03:20:27.138Z,80.37
2018-01-02T03:20:27.737Z,80.75
2018-01-02T03:21:22.253Z,80.65
2018-01-02T03:21:22.831Z,80.84
2018-01-02T03:21:23.412Z,80.84
2018-01-02T03:21:24.015Z,80.27
2018-01-02T03:21:24.614Z,80.84
2018-01-02T03:21:25.214Z,80.84
2018-01-02T03:21:25.813Z,80.94
2018-01-02T03:21:26.413Z,80.84
2018-01-02T03:22:19.870Z,81.13
2018-01-02T03:22:20.466Z,81.23
2018-01-02T03:22:21.066Z,81.51
2018-01-02T03:22:21.667Z,81.41
2018-01-02T03:22:22.265Z,81.41
2018-01-02T03:22:22.866Z,81.60
2018-01-02T03:22:23.465Z,81.60
2018-01-02T03:22:24.065Z,81.60
2018-01-02T03:23:17.623Z,81.32
2018-01-02T03:23:18.221Z,81.32
2018-01-02T03:23:18.820Z,81.23
2018-01-02T03:23:19.419Z,81.32
2018-01-02T03:23:20.019Z,81.32
2018-01-02T03:23:20.621Z,81.32
2018-01-02T03:23:21.220Z,81.32
2018-01-02T03:23:21.821Z,81.32
2018-01-02T03:24:15.275Z,81.51
2018-01-02T03:24:15.872Z,81.98
2018-01-02T03:24:16.472Z,81.79
2018-01-02T03:24:17.073Z,81.98
2018-01-02T03:24:17.672Z,81.51
2018-01-02T03:24:18.271Z,81.51
2018-01-02T03:24:18.872Z,81.51
2018-01-02T03:24:19.471Z,81.51
2018-01-02T03:25:12.928Z,81.60
2018-01-02T03:25:13.523Z,81.79
2018-01-02T03:25:14.122Z,82.08
2018-01-02T03:25:14.727Z,81.70
2018-01-02T03:25:15.323Z,82.27
2018-01-02T03:25:15.922Z,82.27
2018-01-02T03:25:16.523Z,82.36
2018-01-02T03:25:17.121Z,82.27
2018-01-02T03:26:10.578Z,82.55
2018-01-02T03:26:11.176Z,82.36
2018-01-02T03:26:11.776Z,82.55
2018-01-02T03:26:12.377Z,82.46
2018-01-02T03:26:12.974Z,82.36
2018-01-02T03:26:13.575Z,82.46
2018-01-02T03:26:14.177Z,82.65
2018-01-02T03:26:14.774Z,82.46
2018-01-02T03:27:09.277Z,82.65
2018-01-02T03:27:09.850Z,82.65
2018-01-02T03:27:10.449Z,82.84
2018-01-02T03:27:11.052Z,82.84
2018-01-02T03:27:11.650Z,82.84
2018-01-02T03:27:12.250Z,82.74
2018-01-02T03:27:12.849Z,82.74
2018-01-02T03:27:13.448Z,82.84
2018-01-02T03:28:06.906Z,82.93
2018-01-02T03:28:07.502Z,82.93
2018-01-02T03:28:08.102Z,82.93
2018-01-02T03:28:08.702Z,82.84
2018-01-02T03:28:09.302Z,83.03
2018-01-02T03:28:09.901Z,82.93
2018-01-02T03:28:10.500Z,82.93
2018-01-02T03:28:11.102Z,82.84
2018-01-02T03:29:05.580Z,83.69
2018-01-02T03:29:06.177Z,83.78
2018-01-02T03:29:06.779Z,83.69
2018-01-02T03:29:07.381Z,83.40
2018-01-02T03:29:07.976Z,83.97
2018-01-02T03:29:08.578Z,83.59
2018-01-02T03:29:09.177Z,83.59